Time;durP1;ratioP1;P1;durP2;ratioP2;P2;SDS_P1;SDS_P2;PMS_P1;PMS_P2;Temp;Humidity;BMP_temperature;BMP_pressure;BME280_temperature;BME280_humidity;BME280_pressure;Samples;Min_cycle;Max_cycle;Signal;HPM_P1;HPM_P2
2022/10/24 00:01:52;;;;;;;33.80;9.80;;;;;;;;;;5092291;28;21456;-62
2022/10/24 00:04:20;;;;;;;40.77;12.13;;;;;;;;;;5091805;28;21276;-63
2022/10/24 00:06:47;;;;;;;41.50;10.57;;;17.30;99.90;;;;;;5078425;28;20847;-62
2022/10/24 00:09:14;;;;;;;52.70;18.50;;;;;;;;;;5085697;28;20522;-62
2022/10/24 00:11:42;;;;;;;29.93;11.17;;;;;;;;;;5088381;28;20559;-61
2022/10/24 00:14:09;;;;;;;49.13;13.40;;;17.50;99.90;;;;;;5088510;28;20481;-62
2022/10/24 00:16:35;;;;;;;52.47;13.60;;;17.50;99.90;;;;;;5085832;28;21085;-61
2022/10/24 00:19:02;;;;;;;56.73;14.80;;;;;;;;;;5089060;28;20448;-62
2022/10/24 00:21:31;;;;;;;29.70;9.27;;;;;;;;;;5077081;27;20488;-63
2022/10/24 00:23:57;;;;;;;36.13;12.00;;;17.40;99.90;;;;;;5079603;28;20477;-64
2022/10/24 00:26:24;;;;;;;64.47;16.47;;;17.50;99.90;;;;;;5074504;28;20492;-63
2022/10/24 00:28:51;;;;;;;40.30;10.73;;;;;;;;;;5079843;28;20481;-62
2022/10/24 00:31:19;;;;;;;42.47;13.50;;;17.40;99.90;;;;;;5088962;28;20489;-62
2022/10/24 00:33:46;;;;;;;35.33;11.70;;;17.50;99.90;;;;;;5052337;28;20490;-61
2022/10/24 00:36:14;;;;;;;43.73;14.00;;;17.50;99.90;;;;;;5081130;28;20490;-63
2022/10/24 00:38:42;;;;;;;25.80;8.93;;;17.60;99.90;;;;;;5084212;28;21055;-61
2022/10/24 00:41:13;;;;;;;41.83;13.63;;;17.70;99.90;;;;;;5087897;28;20523;-62
2022/10/24 00:43:40;;;;;;;46.07;10.27;;;17.70;99.90;;;;;;5095797;27;20836;-62
2022/10/24 00:46:07;;;;;;;39.60;13.23;;;17.70;99.90;;;;;;5094140;27;20476;-62
2022/10/24 00:48:37;;;;;;;39.37;9.90;;;17.70;99.90;;;;;;5091211;28;20485;-61
2022/10/24 00:51:07;;;;;;;39.27;11.87;;;17.70;99.90;;;;;;5093038;28;20520;-61
2022/10/24 00:53:38;;;;;;;32.03;8.40;;;;;;;;;;5090859;28;20485;-62
2022/10/24 00:56:08;;;;;;;34.90;10.77;;;17.70;99.90;;;;;;5077845;28;20490;-61
2022/10/24 00:58:35;;;;;;;29.90;9.23;;;;;;;;;;5090317;28;21062;-62
2022/10/24 01:01:03;;;;;;;39.03;14.87;;;17.90;99.90;;;;;;5090329;27;20485;-63
2022/10/24 01:03:30;;;;;;;33.27;9.77;;;;;;;;;;5084008;28;21031;-63
2022/10/24 01:06:05;;;;;;;39.40;11.00;;;;;;;;;;5091531;28;20870;-63
2022/10/24 01:08:35;;;;;;;35.73;10.10;;;;;;;;;;5089749;28;20913;-63
2022/10/24 01:11:10;;;;;;;38.20;11.70;;;17.80;99.90;;;;;;5094362;28;21035;-63
2022/10/24 01:13:45;;;;;;;29.70;11.07;;;17.70;99.90;;;;;;5083487;28;20798;-61
2022/10/24 01:16:14;;;;;;;31.73;12.83;;;;;;;;;;5092010;28;20462;-62
2022/10/24 01:18:43;;;;;;;38.10;11.20;;;;;;;;;;5084444;28;20489;-62
2022/10/24 01:21:16;;;;;;;56.67;16.63;;;;;;;;;;5081122;28;20501;-62
2022/10/24 01:24:00;;;;;;;35.43;11.53;;;17.70;99.90;;;;;;5082801;28;20886;-61
2022/10/24 01:26:40;;;;;;;39.57;12.83;;;;;;;;;;5089100;28;20472;-62
2022/10/24 01:29:14;;;;;;;50.43;14.43;;;17.70;99.90;;;;;;5072405;28;20466;-62
2022/10/24 01:31:46;;;;;;;44.17;11.47;;;;;;;;;;5094035;27;20509;-62
2022/10/24 01:34:20;;;;;;;39.67;11.43;;;17.60;99.90;;;;;;5082317;28;20482;-62
2022/10/24 01:36:53;;;;;;;31.87;10.90;;;17.60;99.90;;;;;;5087271;28;20502;-62
2022/10/24 01:39:22;;;;;;;37.07;11.50;;;17.60;99.90;;;;;;5093415;28;20559;-62
2022/10/24 01:41:50;;;;;;;34.27;10.73;;;17.50;99.90;;;;;;5091957;28;20486;-63
2022/10/24 01:44:22;;;;;;;41.73;11.83;;;17.50;99.90;;;;;;5094680;28;20484;-63
2022/10/24 01:46:55;;;;;;;32.73;10.07;;;17.60;99.90;;;;;;5090727;28;20478;-62
2022/10/24 01:49:26;;;;;;;42.57;12.37;;;17.50;99.90;;;;;;5093034;28;20485;-62
2022/10/24 01:51:56;;;;;;;31.40;10.30;;;17.50;99.90;;;;;;5093972;27;20516;-62
2022/10/24 01:54:23;;;;;;;39.90;11.37;;;17.50;99.90;;;;;;5098926;27;20489;-62
2022/10/24 01:56:51;;;;;;;34.13;10.13;;;;;;;;;;5091814;28;20482;-62
2022/10/24 01:59:41;;;;;;;49.10;12.30;;;19.00;99.90;;;;;;5093240;28;20489;-63
2022/10/24 02:02:13;;;;;;;47.80;15.37;;;17.30;99.90;;;;;;5093616;28;20531;-62
2022/10/24 02:04:44;;;;;;;33.73;10.10;;;17.30;99.90;;;;;;5086903;28;20492;-62
2022/10/24 02:07:13;;;;;;;39.80;15.70;;;17.20;99.90;;;;;;5090042;28;20470;-63
2022/10/24 02:09:43;;;;;;;41.17;11.37;;;17.30;99.90;;;;;;5091882;27;21081;-62
2022/10/24 02:12:12;;;;;;;47.17;19.30;;;;;;;;;;5093783;28;20483;-63
2022/10/24 02:14:41;;;;;;;26.63;10.37;;;;;;;;;;5091657;28;20512;-62
2022/10/24 02:17:10;;;;;;;42.37;16.07;;;17.30;99.90;;;;;;5086826;28;20478;-62
2022/10/24 02:19:37;;;;;;;36.87;9.90;;;17.40;99.90;;;;;;5093918;28;20498;-62
2022/10/24 02:22:17;;;;;;;35.03;11.67;;;16.70;99.90;;;;;;5093192;27;20922;-63
2022/10/24 02:24:51;;;;;;;45.03;13.10;;;17.40;99.90;;;;;;5078131;28;20500;-63
2022/10/24 02:27:21;;;;;;;41.23;12.70;;;;;;;;;;5088106;28;20751;-63
2022/10/24 02:29:53;;;;;;;35.43;11.60;;;17.40;99.90;;;;;;5089402;28;20484;-62
2022/10/24 02:32:23;;;;;;;36.73;13.03;;;;;;;;;;5092696;28;20491;-63
2022/10/24 02:34:50;;;;;;;33.33;10.73;;;17.60;99.90;;;;;;5088402;28;20478;-62
2022/10/24 02:37:18;;;;;;;33.73;12.50;;;17.70;99.90;;;;;;5078935;28;20975;-63
2022/10/24 02:39:47;;;;;;;25.53;9.80;;;;;;;;;;5090921;28;21372;-62
2022/10/24 02:42:15;;;;;;;41.10;12.03;;;;;;;;;;5094274;27;20474;-62
2022/10/24 02:44:45;;;;;;;26.37;9.60;;;17.80;99.90;;;;;;5075974;28;20478;-63
2022/10/24 02:47:14;;;;;;;44.00;15.80;;;17.80;99.90;;;;;;5088873;28;20482;-62
2022/10/24 02:49:43;;;;;;;58.63;10.83;;;17.90;99.90;;;;;;5081159;28;20485;-61
2022/10/24 02:52:11;;;;;;;43.83;12.90;;;17.80;99.90;;;;;;5092478;28;20492;-63
2022/10/24 02:54:38;;;;;;;40.57;9.87;;;;;;;;;;5092419;28;21067;-63
2022/10/24 02:57:05;;;;;;;39.87;13.03;;;17.90;99.90;;;;;;5080508;28;20513;-63
2022/10/24 02:59:31;;;;;;;29.10;10.17;;;17.90;99.90;;;;;;5089293;28;20498;-63
2022/10/24 03:01:58;;;;;;;32.17;11.73;;;17.80;99.90;;;;;;5089441;28;20560;-62
2022/10/24 03:04:25;;;;;;;31.97;11.57;;;17.90;99.90;;;;;;5091568;28;20478;-62
2022/10/24 03:06:53;;;;;;;41.80;11.70;;;17.90;99.90;;;;;;5091930;28;20966;-62
2022/10/24 03:09:20;;;;;;;42.90;11.93;;;;;;;;;;5091636;28;20489;-62
2022/10/24 03:11:47;;;;;;;32.67;11.00;;;18.00;99.90;;;;;;5093651;28;20486;-63
2022/10/24 03:14:13;;;;;;;46.90;16.00;;;18.00;99.90;;;;;;5092133;28;20481;-62
2022/10/24 03:16:40;;;;;;;38.00;9.90;;;18.10;99.90;;;;;;5090762;28;20484;-63
2022/10/24 03:19:07;;;;;;;51.23;17.17;;;18.10;99.90;;;;;;5092650;28;21035;-63
2022/10/24 03:21:34;;;;;;;33.47;10.40;;;18.00;99.90;;;;;;5088386;28;20474;-63
2022/10/24 03:24:02;;;;;;;43.00;11.73;;;18.00;99.90;;;;;;5091985;28;21053;-63
2022/10/24 03:26:29;;;;;;;44.30;13.53;;;;;;;;;;5089878;28;20489;-63
2022/10/24 03:28:55;;;;;;;40.47;12.83;;;18.10;99.90;;;;;;5096010;28;20499;-62
2022/10/24 03:31:22;;;;;;;32.13;11.77;;;17.40;99.90;;;;;;5094845;28;20476;-62
2022/10/24 03:33:49;;;;;;;42.03;12.90;;;;;;;;;;5098557;27;20500;-63
2022/10/24 03:36:16;;;;;;;50.40;14.60;;;;;;;;;;5092571;27;21032;-62
2022/10/24 03:38:43;;;;;;;38.63;11.43;;;18.00;99.90;;;;;;5096902;27;21048;-62
2022/10/24 03:41:11;;;;;;;58.97;16.20;;;18.00;99.90;;;;;;5094074;28;20481;-63
2022/10/24 03:43:38;;;;;;;35.10;13.17;;;;;;;;;;5095775;27;20477;-63
2022/10/24 03:46:05;;;;;;;37.07;12.80;;;17.90;99.90;;;;;;5093775;28;20877;-63
2022/10/24 03:48:32;;;;;;;40.57;11.57;;;;;;;;;;5082362;28;20544;-63
2022/10/24 03:50:58;;;;;;;33.90;12.50;;;17.90;99.90;;;;;;5084891;27;20751;-63
2022/10/24 03:53:25;;;;;;;48.60;13.30;;;;;;;;;;5090902;28;20463;-63
2022/10/24 03:55:52;;;;;;;40.60;12.07;;;18.10;99.90;;;;;;5098276;27;20486;-63
2022/10/24 03:58:20;;;;;;;30.83;14.30;;;;;;;;;;5091284;28;20485;-62
2022/10/24 04:00:47;;;;;;;41.10;10.57;;;;;;;;;;5095834;28;20493;-63
2022/10/24 04:03:14;;;;;;;47.77;17.20;;;18.10;99.90;;;;;;5083176;28;20497;-63
2022/10/24 04:05:41;;;;;;;33.07;9.17;;;18.10;99.90;;;;;;5094998;28;20456;-63
2022/10/24 04:08:08;;;;;;;47.17;17.20;;;;;;;;;;5090125;28;20455;-63
2022/10/24 04:10:35;;;;;;;41.07;12.27;;;17.90;99.90;;;;;;5096001;28;20456;-62
2022/10/24 04:13:01;;;;;;;38.07;13.37;;;17.90;99.90;;;;;;5096183;28;20845;-63
2022/10/24 04:15:30;;;;;;;32.97;11.17;;;;;;;;;;5094376;28;20478;-63
2022/10/24 04:17:57;;;;;;;31.60;11.20;;;17.90;99.90;;;;;;5083422;28;20865;-62
2022/10/24 04:20:24;;;;;;;33.20;12.63;;;;;;;;;;5091869;28;20471;-62
2022/10/24 04:22:51;;;;;;;30.17;12.90;;;17.80;99.90;;;;;;5091648;27;20489;-62
2022/10/24 04:25:18;;;;;;;40.80;13.40;;;;;;;;;;5093719;28;20482;-63
2022/10/24 04:27:45;;;;;;;38.53;12.13;;;17.90;99.90;;;;;;5095492;28;20491;-62
2022/10/24 04:30:13;;;;;;;39.97;12.97;;;17.90;99.90;;;;;;5095111;28;20485;-63
2022/10/24 04:32:41;;;;;;;45.33;9.93;;;17.90;99.90;;;;;;5096165;28;20447;-63
2022/10/24 04:35:08;;;;;;;39.50;14.93;;;17.90;99.90;;;;;;5095730;28;20470;-63
2022/10/24 04:37:35;;;;;;;37.03;10.37;;;17.80;99.90;;;;;;5092428;27;20462;-62
2022/10/24 04:40:02;;;;;;;31.47;12.00;;;17.90;99.90;;;;;;5092071;28;21016;-63
2022/10/24 04:42:28;;;;;;;37.90;11.37;;;18.00;99.90;;;;;;5094674;28;20448;-63
2022/10/24 04:44:55;;;;;;;52.50;11.63;;;18.00;99.90;;;;;;5096066;28;20883;-62
2022/10/24 04:47:22;;;;;;;34.23;11.90;;;18.00;99.90;;;;;;5092167;28;20480;-62
2022/10/24 04:49:50;;;;;;;33.43;12.47;;;18.00;99.90;;;;;;5091163;28;20686;-62
2022/10/24 04:52:17;;;;;;;39.20;15.27;;;18.00;99.90;;;;;;5094322;28;20460;-63
2022/10/24 04:54:43;;;;;;;38.83;11.50;;;18.10;99.90;;;;;;5096744;28;20812;-63
2022/10/24 04:57:10;;;;;;;56.97;17.20;;;18.10;99.90;;;;;;5091264;28;20459;-63
2022/10/24 04:59:37;;;;;;;51.17;10.57;;;;;;;;;;5093651;28;20481;-62
2022/10/24 05:02:04;;;;;;;35.67;13.40;;;18.10;99.90;;;;;;5096269;28;20471;-63
2022/10/24 05:04:30;;;;;;;25.60;12.07;;;18.10;99.90;;;;;;5090771;28;21166;-63
2022/10/24 05:06:59;;;;;;;30.00;9.33;;;18.10;99.90;;;;;;5080015;28;20480;-63
2022/10/24 05:09:25;;;;;;;57.53;15.97;;;18.10;99.90;;;;;;5089121;28;20447;-63
2022/10/24 05:11:55;;;;;;;30.03;12.50;;;18.00;99.90;;;;;;5081653;28;20563;-63
2022/10/24 05:14:22;;;;;;;39.03;11.47;;;18.00;99.90;;;;;;5088055;28;20565;-62
2022/10/24 05:16:49;;;;;;;22.33;12.83;;;18.00;99.90;;;;;;5090783;28;20456;-63
2022/10/24 05:19:16;;;;;;;38.77;16.07;;;18.00;99.90;;;;;;5094239;28;20717;-63
2022/10/24 05:21:42;;;;;;;28.73;10.47;;;18.00;99.90;;;;;;5094634;28;20482;-63
2022/10/24 05:24:11;;;;;;;40.93;14.80;;;18.10;99.90;;;;;;5091632;28;21140;-63
2022/10/24 05:26:37;;;;;;;29.47;11.37;;;18.10;99.90;;;;;;5077729;28;20593;-63
2022/10/24 05:29:04;;;;;;;39.63;12.63;;;18.10;99.90;;;;;;5091537;28;20500;-63
2022/10/24 05:31:31;;;;;;;34.37;11.50;;;18.10;99.90;;;;;;5083170;28;20467;-63
2022/10/24 05:33:57;;;;;;;26.80;13.17;;;18.10;99.90;;;;;;5092513;27;20500;-63
2022/10/24 05:36:24;;;;;;;31.23;13.43;;;18.20;99.90;;;;;;5079004;27;20485;-63
2022/10/24 05:38:51;;;;;;;29.67;12.60;;;18.10;99.90;;;;;;5096868;27;20481;-62
2022/10/24 05:41:19;;;;;;;30.07;15.40;;;18.20;99.90;;;;;;5093413;28;20460;-63
2022/10/24 05:43:46;;;;;;;40.93;10.97;;;18.20;99.90;;;;;;5082967;28;20493;-63
2022/10/24 05:46:12;;;;;;;39.83;14.90;;;18.20;99.90;;;;;;5078824;28;20878;-62
2022/10/24 05:48:39;;;;;;;23.40;11.03;;;18.20;99.90;;;;;;5055930;28;20478;-62
2022/10/24 05:51:06;;;;;;;29.80;12.80;;;18.20;99.90;;;;;;5081000;27;20443;-63
2022/10/24 05:53:32;;;;;;;21.37;9.40;;;18.20;99.90;;;;;;5081111;28;20820;-63
2022/10/24 05:55:59;;;;;;;23.30;11.10;;;18.20;99.90;;;;;;5093246;28;20456;-63
2022/10/24 05:58:27;;;;;;;25.53;11.67;;;18.20;99.90;;;;;;5092685;28;20480;-63
2022/10/24 06:00:54;;;;;;;22.17;11.77;;;18.20;99.90;;;;;;5082653;27;20554;-62
2022/10/24 06:03:21;;;;;;;33.43;12.60;;;18.10;99.90;;;;;;5063320;28;20493;-63
2022/10/24 06:05:47;;;;;;;30.83;10.90;;;22.10;99.90;;;;;;5084565;28;20481;-63
2022/10/24 06:08:14;;;;;;;47.20;14.90;;;18.00;99.90;;;;;;5075575;28;20490;-62
2022/10/24 06:10:41;;;;;;;46.13;11.80;;;18.00;99.90;;;;;;5086297;28;20459;-62
2022/10/24 06:13:08;;;;;;;47.73;14.03;;;;;;;;;;5093179;28;20463;-63
2022/10/24 06:15:36;;;;;;;39.10;10.70;;;;;;;;;;5081094;28;20942;-63
2022/10/24 06:18:03;;;;;;;31.00;11.97;;;18.10;99.90;;;;;;5067277;27;20996;-63
2022/10/24 06:20:30;;;;;;;38.53;10.80;;;21.70;99.90;;;;;;5091086;28;20866;-62
2022/10/24 06:22:57;;;;;;;41.43;12.33;;;18.00;99.90;;;;;;5093252;28;20486;-63
2022/10/24 06:25:24;;;;;;;31.37;12.20;;;;;;;;;;5082285;28;21181;-62
2022/10/24 06:27:51;;;;;;;26.33;10.53;;;;;;;;;;5089004;28;20962;-63
2022/10/24 06:30:18;;;;;;;54.33;15.23;;;17.80;99.90;;;;;;5091349;28;21778;-63
2022/10/24 06:32:46;;;;;;;27.80;11.70;;;17.80;99.90;;;;;;5093998;28;20477;-63
2022/10/24 06:35:14;;;;;;;44.37;13.23;;;17.80;99.90;;;;;;5091189;28;20495;-63
2022/10/24 06:37:42;;;;;;;38.03;12.03;;;;;;;;;;5077740;28;20468;-62
2022/10/24 06:40:09;;;;;;;47.43;16.20;;;;;;;;;;5078485;28;20459;-63
2022/10/24 06:42:36;;;;;;;36.10;11.10;;;;;;;;;;5092442;28;20881;-63
2022/10/24 06:45:04;;;;;;;48.10;14.57;;;17.80;99.90;;;;;;5091320;28;20475;-63
2022/10/24 06:47:31;;;;;;;35.23;12.50;;;17.80;99.90;;;;;;5092566;27;20459;-63
2022/10/24 06:49:59;;;;;;;39.53;10.43;;;17.80;99.90;;;;;;5081300;28;20481;-63
2022/10/24 06:52:26;;;;;;;35.33;11.23;;;17.80;99.90;;;;;;5065326;28;20447;-63
2022/10/24 06:54:53;;;;;;;36.50;10.37;;;17.70;99.90;;;;;;5094221;28;20907;-63
2022/10/24 06:57:19;;;;;;;37.90;12.33;;;17.80;99.90;;;;;;5079830;28;20462;-63
2022/10/24 06:59:46;;;;;;;42.77;10.87;;;17.70;99.90;;;;;;5091120;28;20497;-62
2022/10/24 07:02:15;;;;;;;38.27;12.93;;;17.60;99.90;;;;;;5094146;28;20482;-63
2022/10/24 07:04:42;;;;;;;37.40;11.23;;;17.80;99.90;;;;;;5092663;28;22029;-63
2022/10/24 07:07:14;;;;;;;40.57;14.30;;;;;;;;;;5090355;28;20452;-63
2022/10/24 07:09:42;;;;;;;35.20;10.13;;;;;;;;;;5092839;28;20880;-63
2022/10/24 07:12:09;;;;;;;50.90;12.77;;;;;;;;;;5090578;28;20500;-63
2022/10/24 07:14:35;;;;;;;33.23;9.80;;;17.80;99.90;;;;;;5092890;28;20480;-63
2022/10/24 07:17:02;;;;;;;25.87;11.07;;;17.80;99.90;;;;;;5090428;28;20777;-62
2022/10/24 07:19:29;;;;;;;32.30;9.00;;;17.90;99.90;;;;;;5092665;28;20485;-63
2022/10/24 07:21:56;;;;;;;41.43;13.63;;;17.80;99.90;;;;;;5086125;28;20452;-63
2022/10/24 07:24:24;;;;;;;40.10;15.77;;;17.80;99.90;;;;;;5075547;28;20865;-63
2022/10/24 07:26:50;;;;;;;44.43;9.53;;;17.80;99.90;;;;;;5094255;28;20456;-63
2022/10/24 07:29:18;;;;;;;35.57;13.03;;;;;;;;;;5084743;28;20977;-63
2022/10/24 07:31:46;;;;;;;34.90;10.63;;;17.80;99.90;;;;;;5076993;28;20448;-62
2022/10/24 07:34:13;;;;;;;42.40;14.33;;;;;;;;;;5073991;28;20485;-62
2022/10/24 07:36:40;;;;;;;26.00;9.13;;;14.80;99.90;;;;;;5080077;28;20481;-63
2022/10/24 07:39:07;;;;;;;41.57;14.53;;;;;;;;;;5083059;28;20500;-63
2022/10/24 07:41:39;;;;;;;28.43;9.27;;;18.10;99.90;;;;;;5088469;28;20444;-63
2022/10/24 07:44:06;;;;;;;32.60;12.90;;;18.10;99.90;;;;;;5089817;28;20490;-62
2022/10/24 07:46:33;;;;;;;31.87;10.13;;;18.40;99.90;;;;;;5081324;28;20461;-63
2022/10/24 07:48:59;;;;;;;44.23;10.77;;;18.10;99.90;;;;;;5087546;28;20483;-63
2022/10/24 07:51:28;;;;;;;38.37;12.23;;;;;;;;;;5075349;28;20548;-63
2022/10/24 07:53:56;;;;;;;52.47;11.07;;;18.00;99.90;;;;;;5084378;28;20477;-63
2022/10/24 07:56:23;;;;;;;40.67;15.63;;;18.00;99.90;;;;;;5072245;28;20473;-63
2022/10/24 07:58:51;;;;;;;32.40;9.23;;;18.20;99.90;;;;;;5089001;28;21196;-63
2022/10/24 08:01:19;;;;;;;48.33;13.70;;;18.20;99.90;;;;;;5088573;28;20463;-64
2022/10/24 08:03:47;;;;;;;31.57;9.37;;;18.40;99.90;;;;;;5090343;28;20670;-62
2022/10/24 08:06:17;;;;;;;36.63;13.33;;;18.40;99.90;;;;;;5087754;28;20478;-62
2022/10/24 08:08:44;;;;;;;35.73;10.53;;;18.40;99.90;;;;;;5074249;28;21152;-62
2022/10/24 08:11:12;;;;;;;35.87;13.63;;;18.50;99.90;;;;;;5073625;28;21239;-62
2022/10/24 08:13:39;;;;;;;26.43;7.97;;;18.40;99.90;;;;;;5079896;28;20444;-63
2022/10/24 08:16:09;;;;;;;45.17;14.53;;;;;;;;;;5091667;28;20473;-63
2022/10/24 08:18:37;;;;;;;26.83;10.13;;;18.30;99.90;;;;;;5092019;27;20474;-63
2022/10/24 08:21:06;;;;;;;32.57;11.30;;;18.30;99.90;;;;;;5092803;28;20999;-63
2022/10/24 08:23:34;;;;;;;34.37;8.27;;;18.40;99.90;;;;;;5077838;27;20719;-63
2022/10/24 08:26:03;;;;;;;36.90;12.20;;;18.80;99.90;;;;;;5078647;28;20469;-62
2022/10/24 08:28:31;;;;;;;28.57;9.67;;;;;;;;;;5089766;28;21039;-63
2022/10/24 08:30:59;;;;;;;33.67;8.63;;;19.60;99.90;;;;;;5092588;28;20452;-63
2022/10/24 08:33:27;;;;;;;31.87;11.03;;;19.90;99.90;;;;;;5085424;28;20464;-63
2022/10/24 08:35:56;;;;;;;42.40;11.03;;;;;;;;;;5093358;28;20485;-64
2022/10/24 08:38:23;;;;;;;36.37;10.50;;;;;;;;;;5090561;28;20447;-64
2022/10/24 08:40:50;;;;;;;27.20;8.67;;;19.90;99.90;;;;;;5090745;28;21048;-63
2022/10/24 08:43:18;;;;;;;39.80;11.30;;;19.90;99.90;;;;;;5090791;28;20998;-63
2022/10/24 08:45:48;;;;;;;36.90;11.53;;;;;;;;;;5089152;28;20455;-63
2022/10/24 08:48:21;;;;;;;44.33;13.53;;;20.10;99.90;;;;;;5087305;28;20459;-63
2022/10/24 08:50:53;;;;;;;38.50;9.93;;;20.10;99.90;;;;;;5094343;27;20448;-63
2022/10/24 08:53:25;;;;;;;47.47;12.40;;;20.20;99.90;;;;;;5091751;28;20948;-63
2022/10/24 08:55:54;;;;;;;60.13;11.00;;;20.20;99.90;;;;;;5092644;28;20877;-64
2022/10/24 08:58:24;;;;;;;32.13;11.63;;;20.40;99.90;;;;;;5061163;28;20965;-63
2022/10/24 09:00:53;;;;;;;28.10;9.53;;;20.40;99.90;;;;;;5091400;28;20979;-64
2022/10/24 09:03:25;;;;;;;31.60;10.33;;;20.50;99.90;;;;;;5065561;28;20533;-63
2022/10/24 09:05:56;;;;;;;38.10;11.20;;;20.40;99.90;;;;;;5084179;28;21055;-64
2022/10/24 09:08:26;;;;;;;39.87;11.50;;;;;;;;;;5060122;28;20449;-64
2022/10/24 09:10:57;;;;;;;27.90;9.47;;;20.50;99.90;;;;;;5085272;28;20964;-64
2022/10/24 09:13:26;;;;;;;35.43;10.73;;;20.40;99.90;;;;;;5092456;28;20479;-64
2022/10/24 09:15:52;;;;;;;36.90;8.07;;;20.20;99.90;;;;;;5094542;28;21008;-64
2022/10/24 09:18:23;;;;;;;27.27;10.20;;;20.40;99.90;;;;;;5091965;28;20481;-64
2022/10/24 09:20:52;;;;;;;27.73;9.23;;;;;;;;;;5086792;28;20454;-64
2022/10/24 09:23:21;;;;;;;27.53;8.27;;;20.60;99.90;;;;;;5062411;28;20483;-64
2022/10/24 09:25:51;;;;;;;25.40;9.03;;;20.70;99.90;;;;;;5085491;27;21489;-64
2022/10/24 09:28:19;;;;;;;26.17;10.63;;;;;;;;;;5091340;28;20807;-64
2022/10/24 09:30:46;;;;;;;27.40;7.03;;;20.90;99.90;;;;;;5085031;28;20740;-63
2022/10/24 09:33:23;;;;;;;31.00;11.53;;;20.80;99.80;;;;;;5091365;28;20455;-65
2022/10/24 09:35:51;;;;;;;40.10;8.40;;;21.00;99.90;;;;;;5055569;27;20451;-64
2022/10/24 09:38:27;;;;;;;33.70;10.00;;;;;;;;;;5079823;27;20461;-64
2022/10/24 09:40:56;;;;;;;31.93;7.77;;;21.10;99.40;;;;;;5079506;28;20448;-64
2022/10/24 09:43:35;;;;;;;28.17;8.90;;;21.20;98.20;;;;;;5088675;27;20496;-65
2022/10/24 09:46:06;;;;;;;19.47;6.83;;;21.10;98.60;;;;;;5085387;28;20479;-64
2022/10/24 09:48:44;;;;;;;21.47;3.83;;;20.90;98.00;;;;;;5087440;28;20489;-64
2022/10/24 09:51:19;;;;;;;27.00;11.20;;;20.70;98.40;;;;;;5078238;28;20464;-64
2022/10/24 09:54:05;;;;;;;17.63;4.77;;;20.60;98.40;;;;;;5085766;28;20459;-64
2022/10/24 09:56:38;;;;;;;30.50;9.00;;;20.50;98.70;;;;;;5084006;28;20674;-64
2022/10/24 09:59:27;;;;;;;25.57;9.40;;;20.40;98.30;;;;;;5067665;28;21004;-64
2022/10/24 10:02:08;;;;;;;26.27;7.10;;;;;;;;;;5087388;28;20553;-64
2022/10/24 10:04:35;;;;;;;21.63;6.03;;;20.50;98.70;;;;;;5089406;28;20489;-64
2022/10/24 10:07:09;;;;;;;22.47;7.10;;;20.40;98.30;;;;;;5073477;28;20486;-64
2022/10/24 10:09:41;;;;;;;12.80;3.83;;;20.30;97.50;;;;;;5084181;27;20755;-64
2022/10/24 10:12:22;;;;;;;37.80;9.97;;;;;;;;;;5086546;28;20449;-63
2022/10/24 10:14:48;;;;;;;23.30;6.33;;;20.30;98.40;;;;;;5079631;28;20558;-64
2022/10/24 10:17:20;;;;;;;30.83;10.67;;;;;;;;;;5078573;28;20462;-64
2022/10/24 10:19:47;;;;;;;29.63;9.10;;;20.70;97.80;;;;;;5062470;28;21407;-64
2022/10/24 10:22:23;;;;;;;37.23;9.40;;;20.80;98.30;;;;;;5089015;28;20452;-64
2022/10/24 10:24:51;;;;;;;20.57;7.63;;;21.20;99.00;;;;;;5078010;28;20456;-63
2022/10/24 10:27:26;;;;;;;29.10;7.30;;;;;;;;;;5073106;28;20617;-64
2022/10/24 10:30:18;;;;;;;20.77;6.23;;;21.30;97.30;;;;;;5054555;28;20478;-64
2022/10/24 10:32:57;;;;;;;22.20;7.37;;;21.10;95.80;;;;;;5077501;28;20533;-65
2022/10/24 10:35:26;;;;;;;21.20;5.93;;;;;;;;;;5082383;28;20921;-64
2022/10/24 10:38:00;;;;;;;32.77;4.50;;;21.70;96.40;;;;;;5052004;28;20492;-64
2022/10/24 10:40:34;;;;;;;12.40;3.77;;;21.70;96.60;;;;;;5083964;28;20750;-64
2022/10/24 10:43:22;;;;;;;25.70;5.97;;;21.50;95.80;;;;;;5090177;28;20479;-64
2022/10/24 10:46:02;;;;;;;21.80;6.07;;;21.20;95.40;;;;;;5085167;28;20481;-64
2022/10/24 10:48:40;;;;;;;23.13;6.43;;;21.10;95.70;;;;;;5086280;28;20477;-63
2022/10/24 10:51:14;;;;;;;31.07;8.27;;;18.60;95.10;;;;;;5074856;28;20455;-63
2022/10/24 10:53:45;;;;;;;22.10;6.00;;;;;;;;;;5090588;28;20481;-63
2022/10/24 10:56:25;;;;;;;35.33;10.20;;;21.20;96.60;;;;;;5085541;28;20451;-64
2022/10/24 10:59:02;;;;;;;20.23;4.03;;;21.30;96.60;;;;;;5046978;28;20525;-63
2022/10/24 11:01:37;;;;;;;8.30;5.03;;;21.10;96.30;;;;;;5066525;28;20941;-64
2022/10/24 11:04:13;;;;;;;18.77;5.70;;;21.40;96.80;;;;;;5086033;28;20452;-64
2022/10/24 11:06:50;;;;;;;6.00;3.00;;;21.30;97.00;;;;;;5066707;28;21793;-64
2022/10/24 11:09:31;;;;;;;19.33;7.50;;;21.20;96.40;;;;;;5058626;28;20444;-64
2022/10/24 11:12:09;;;;;;;13.10;6.60;;;21.50;97.30;;;;;;5089263;28;20477;-63
2022/10/24 11:14:38;;;;;;;12.47;4.87;;;21.60;97.90;;;;;;5081006;28;20445;-64
2022/10/24 11:17:10;;;;;;;12.07;5.17;;;;;;;;;;5080019;28;20508;-64
2022/10/24 11:19:44;;;;;;;6.83;4.47;;;21.10;96.40;;;;;;5076371;28;21192;-64
2022/10/24 11:22:19;;;;;;;14.17;6.10;;;21.40;97.50;;;;;;5090054;28;20477;-65
2022/10/24 11:24:53;;;;;;;10.10;6.60;;;21.30;97.00;;;;;;5089754;28;20451;-64
2022/10/24 11:27:28;;;;;;;16.03;6.47;;;21.30;97.30;;;;;;5074104;28;20504;-64
2022/10/24 11:29:58;;;;;;;6.53;4.60;;;21.30;96.90;;;;;;5088671;28;20506;-64
2022/10/24 11:32:32;;;;;;;11.57;4.03;;;21.40;97.00;;;;;;5088838;28;20648;-64
2022/10/24 11:35:05;;;;;;;7.30;4.10;;;21.50;97.90;;;;;;5076859;28;20559;-64
2022/10/24 11:37:35;;;;;;;11.10;3.90;;;21.70;97.30;;;;;;5086227;28;20448;-64
2022/10/24 11:40:07;;;;;;;8.77;4.50;;;21.50;96.90;;;;;;5079343;28;20459;-64
2022/10/24 11:42:42;;;;;;;6.43;3.13;;;21.50;96.80;;;;;;5088355;28;20530;-63
2022/10/24 11:45:12;;;;;;;16.23;6.87;;;21.60;97.40;;;;;;5089647;28;20481;-63
2022/10/24 11:47:49;;;;;;;16.17;4.50;;;21.60;97.10;;;;;;5087706;28;20764;-64
2022/10/24 11:50:24;;;;;;;12.27;3.10;;;21.40;96.90;;;;;;5063808;28;20492;-64
2022/10/24 11:52:54;;;;;;;7.40;3.80;;;21.60;97.70;;;;;;5093290;28;20476;-64
2022/10/24 11:55:23;;;;;;;8.90;4.17;;;21.40;97.20;;;;;;5092368;28;20448;-64
2022/10/24 11:57:56;;;;;;;8.60;4.40;;;21.20;96.40;;;;;;5092153;28;20460;-64
2022/10/24 12:00:25;;;;;;;8.40;3.07;;;21.20;97.20;;;;;;5092126;28;20474;-64
2022/10/24 12:03:22;;;;;;;13.40;4.80;;;21.40;97.40;;;;;;5093203;28;20473;-63
2022/10/24 12:06:09;;;;;;;5.80;3.60;;;21.70;97.50;;;;;;5051879;28;20448;-63
2022/10/24 12:08:57;;;;;;;5.97;3.33;;;;;;;;;;5090764;27;20465;-63
2022/10/24 12:11:35;;;;;;;4.23;1.93;;;21.80;95.80;;;;;;5042271;28;20493;-64
2022/10/24 12:14:47;;;;;;;5.03;2.57;;;22.00;95.30;;;;;;5088447;28;20778;-64
2022/10/24 12:17:49;;;;;;;11.10;3.10;;;21.90;95.90;;;;;;5015983;27;20480;-64
2022/10/24 12:20:19;;;;;;;7.53;2.93;;;21.70;95.60;;;;;;5091372;27;20447;-64
2022/10/24 12:22:48;;;;;;;22.37;2.70;;;21.70;95.10;;;;;;5081147;28;20487;-64
2022/10/24 12:25:21;;;;;;;6.10;1.70;;;21.90;96.00;;;;;;5085433;28;20463;-64
2022/10/24 12:27:53;;;;;;;3.87;2.60;;;22.00;95.00;;;;;;5090945;28;20478;-64
2022/10/24 12:30:23;;;;;;;4.90;1.93;;;21.90;94.20;;;;;;5087655;28;20801;-64
2022/10/24 12:32:55;;;;;;;5.97;1.70;;;21.90;94.90;;;;;;5090993;28;20467;-64
2022/10/24 12:35:50;;;;;;;26.47;3.13;;;22.00;94.90;;;;;;5090315;28;20809;-64
2022/10/24 12:38:59;;;;;;;4.40;2.23;;;21.90;93.80;;;;;;5087712;28;20558;-64
2022/10/24 12:41:38;;;;;;;5.13;2.03;;;21.70;93.50;;;;;;5023509;28;21352;-64
2022/10/24 12:44:38;;;;;;;3.63;1.93;;;21.60;93.70;;;;;;5086618;28;20485;-64
2022/10/24 12:47:34;;;;;;;5.27;1.60;;;21.40;93.60;;;;;;5090022;28;20523;-63
2022/10/24 12:50:38;;;;;;;14.47;2.17;;;21.30;94.00;;;;;;5067952;28;20480;-63
2022/10/24 12:53:18;;;;;;;3.83;1.27;;;21.20;93.80;;;;;;5080447;28;20463;-63
2022/10/24 12:56:08;;;;;;;3.87;2.27;;;21.00;93.50;;;;;;5081010;28;20473;-63
2022/10/24 12:58:37;;;;;;;10.27;2.10;;;21.10;93.50;;;;;;5084909;28;20481;-63
2022/10/24 13:01:08;;;;;;;7.10;3.33;;;21.10;94.60;;;;;;5086367;28;20485;-64
2022/10/24 13:04:12;;;;;;;4.47;2.30;;;21.10;94.80;;;;;;5067096;28;20490;-63
2022/10/24 13:06:52;;;;;;;4.53;1.90;;;21.20;94.80;;;;;;5052926;28;20456;-64
2022/10/24 13:09:31;;;;;;;13.63;3.40;;;21.30;94.80;;;;;;5066139;28;20443;-64
2022/10/24 13:12:09;;;;;;;3.97;2.07;;;21.30;94.70;;;;;;5072172;28;20452;-64